Winter Haven, FL (33882)

12:07 AM EDT on May 01, 2017 (GMT -0400)
Downtown Winter Haven | | Change Station

Elev 184 ft 28.03 °N, 81.73 °W | Updated 54 seconds ago

Clear
Clear
76.3 °F
Feels Like 78 °F
N
8.1
Wind Variable Wind from SE
Gusts 10.1 mph

Today
High -- | Low -- °F
--% Chance of Precip.
Yesterday
High -- | Low -- °F
Precip. -- in
Pressure 30.10 in
Visibility 10.0 miles
Clouds Clear
Heat Index 78 °F
Dew Point 69 °F
Humidity 79%
Rainfall 0.00 in
Snow Depth Not available.
6:46 AM 8:01 PM
Waxing Crescent, 29% visible
METAR KGIF 010353Z AUTO 13011KT 10SM CLR 24/19 A3010 RMK AO2 SLP191 T02390194
Pressure 30.10 in
Visibility 10.0 miles
Clouds Clear
Heat Index 78 °F
Dew Point 69 °F
Humidity 79%
Rainfall 0.00 in
Snow Depth Not available.
6:46 AM 8:01 PM
Waxing Crescent, 29% visible
METAR KGIF 010353Z AUTO 13011KT 10SM CLR 24/19 A3010 RMK AO2 SLP191 T02390194

Get Severe Weather Alerts

Thanks for signing up!

Be on the lookout for a verification email in your inbox.

You'll start receiving the daily forecast at 8 AM.

×

10-Day Weather Forecast

Almanac

Astronomy

May. 01, 2017 Rise Set
Actual Time
Civil Twilight
Nautical Twilight
Astronomical Twilight
Moon
Length of Visible Light
Length of Day
Tomorrow will be .
, % of the Moon is Illuminated

Today's Extremes

State Highs State Lows

Community

WunderPhotos

WunderBlog® & News

Nearby

Air Quality

  Air Quality AQ Index Pollutant
Not available.

Snow Depth

Station Depth Elevation

Earthquake Activity

City Distance Mag. Time & Date
Minimum magnitude displayed is 2.5.

Coastal Water Temperatures

Place Temperature

Stations

Nearby Weather Stations

Station Location Temp. Windchill Dew Point Humidity Wind Precip. Elev Updated Type
                   

Watches & Warnings

There are currently no watches in effect.